Pearl Of Scandinavia — OWFU2 — position and weather

sailwx.info

Track history (hours):
 
Tides and Currents Weather Stations Pressure Air Temp Water Temp Dewpoint Dewpoint Depression Visibility Wind Speed Wind Dir Waves Ship Positions

Pearl Of Scandinavia

Last reported at 2016-Dec-03 15:31 UTC. Time now 2016-Dec-03 15:38 UTC.
Position N 59°54' E 010°44'.

Length 176.4 m; beam 34 m; draft 6.215 m.

Type: Ship. MMSI: 219945000.

Date/timePositionNaut miles runAvg speedWind from/ knotsBaromVisibWave heightAir tempDewpointWater temp
2016-Dec-03 15:31N 59°54' E 010°44'2 0.2
2016-Dec-03 08:20N 59°53' E 010°41'1114.0
2016-Dec-03 07:34N 59°43' E 010°35'1414.2
2016-Dec-03 06:34N 59°29' E 010°34'1615.9
2016-Dec-03 05:33N 59°13' E 010°38'1615.9
2016-Dec-03 04:33N 58°57' E 010°42'1615.8
2016-Dec-03 03:34N 58°42' E 010°45'1616.0
2016-Dec-03 02:33N 58°27' E 010°56'1616.0
2016-Dec-03 01:33N 58°11' E 011°06'1616.2
2016-Dec-03 00:33N 57°56' E 011°16'1616.3
2016-Dec-02 23:33N 57°41' E 011°26'1616.4
2016-Dec-02 22:33N 57°26' E 011°38'1716.5
2016-Dec-02 21:33N 57°12' E 011°54'6616.6
2016-Dec-02 17:33N 56°09' E 012°31'1616.0
2016-Dec-02 16:34N 55°54' E 012°45'1313.1
2016-Dec-02 15:33N 55°42' E 012°36'0 0.2
2016-Dec-02 14:33N 55°42' E 012°36'0 0.0
2016-Dec-02 13:33N 55°42' E 012°36'0 0.0
2016-Dec-02 12:33N 55°42' E 012°36'0 0.0
2016-Dec-02 11:33N 55°42' E 012°36'0 0.0
2016-Dec-02 10:33N 55°42' E 012°36'0 0.0
2016-Dec-02 09:33N 55°42' E 012°36'0 0.2
2016-Dec-02 08:33N 55°42' E 012°36'1110.8
2016-Dec-02 07:33N 55°53' E 012°40'1414.4
2016-Dec-02 06:33N 56°07' E 012°32'235222.1
2016-Dec-02 05:30N 59°54' E 010°45'0 0.0
2016-Dec-02 04:33N 59°54' E 010°45'0 0.0
2016-Dec-02 03:29N 59°54' E 010°45'0 0.3
2016-Dec-02 02:33N 59°54' E 010°44'157157.6
2016-Dec-02 01:33N 57°21' E 011°44'1716.6
2016-Dec-02 00:33N 57°35' E 011°29'1716.9
2016-Dec-01 23:33N 57°51' E 011°16'1616.2
2016-Dec-01 22:33N 58°06' E 011°08'1616.0
2016-Dec-01 21:33N 58°21' E 010°59'1616.4
2016-Dec-01 20:33N 58°37' E 010°50'1716.5
2016-Dec-01 19:33N 58°53' E 010°44'1716.7
2016-Dec-01 18:33N 59°10' E 010°38'1817.5
2016-Dec-01 17:33N 59°27' E 010°33'1413.9
2016-Dec-01 16:33N 59°41' E 010°36'1413.1
2016-Dec-01 15:31N 59°54' E 010°44'1 0.2
2016-Dec-01 08:20N 59°54' E 010°41'1113.9
2016-Dec-01 07:33N 59°43' E 010°35'1414.0
2016-Dec-01 06:33N 59°29' E 010°35'1616.5
2016-Dec-01 05:33N 59°13' E 010°38'1616.4
2016-Dec-01 04:33N 58°57' E 010°42'1616.2
2016-Dec-01 03:34N 58°41' E 010°46'1717.1
2016-Dec-01 02:33N 58°25' E 010°56'1816.7
2016-Dec-01 01:30N 58°08' E 011°07'1616.7
2016-Dec-01 00:33N 57°53' E 011°16'1716.6
2016-Nov-30 23:33N 57°37' E 011°27'1616.1
2016-Nov-30 22:33N 57°23' E 011°41'1716.5
2016-Nov-30 21:33N 57°09' E 011°56'6315.9
2016-Nov-30 17:33N 56°08' E 012°32'1515.0
2016-Nov-30 16:33N 55°55' E 012°44'1313.3
2016-Nov-30 15:33N 55°42' E 012°36'0 0.4
2016-Nov-30 14:31N 55°42' E 012°36'0 0.0
2016-Nov-30 13:31N 55°42' E 012°36'0 0.0
2016-Nov-30 12:31N 55°42' E 012°36'0 0.0
2016-Nov-30 11:31N 55°42' E 012°36'0 0.0
2016-Nov-30 10:31N 55°42' E 012°36'0 0.0
2016-Nov-30 09:31N 55°42' E 012°36'0 0.3
2016-Nov-30 08:32N 55°42' E 012°36'1111.7
2016-Nov-30 07:33N 55°54' E 012°40'1515.4
2016-Nov-30 06:33N 56°08' E 012°30'6615.8
2016-Nov-30 02:22N 57°11' E 011°54'1315.8
2016-Nov-30 01:33N 57°22' E 011°42'1616.5
2016-Nov-30 00:33N 57°37' E 011°28'1717.0
2016-Nov-29 23:33N 57°53' E 011°17'1716.6
2016-Nov-29 22:33N 58°09' E 011°06'1515.6
2016-Nov-29 21:34N 58°23' E 010°58'1616.2
2016-Nov-29 20:34N 58°39' E 010°49'1716.9
2016-Nov-29 19:34N 58°56' E 010°43'1716.9
2016-Nov-29 18:34N 59°12' E 010°38'1717.1
2016-Nov-29 17:34N 59°29' E 010°34'1313.1
2016-Nov-29 16:33N 59°42' E 010°35'1312.6
2016-Nov-29 15:32N 59°54' E 010°45'0 0.0
2016-Nov-29 14:33N 59°54' E 010°45'0 0.0
2016-Nov-29 13:32N 59°54' E 010°45'0 0.0
2016-Nov-29 12:32N 59°54' E 010°45'0 0.0
2016-Nov-29 11:33N 59°54' E 010°45'0 0.0
2016-Nov-29 10:32N 59°54' E 010°45'0 0.0
2016-Nov-29 09:32N 59°54' E 010°45'0 0.2
2016-Nov-29 08:33N 59°54' E 010°45'1212.1
2016-Nov-29 07:33N 59°43' E 010°35'1413.9
2016-Nov-29 06:33N 59°29' E 010°34'1616.5
2016-Nov-29 05:33N 59°13' E 010°38'1616.3
2016-Nov-29 04:33N 58°57' E 010°43'1615.9
2016-Nov-29 03:33N 58°41' E 010°46'1716.6
2016-Nov-29 02:33N 58°25' E 010°56'3635.5
2016-Nov-29 01:33N 59°00' E 010°41'7071.2
2016-Nov-29 00:33N 57°52' E 011°17'1716.7
2016-Nov-28 23:33N 57°37' E 011°28'1616.4
2016-Nov-28 22:33N 57°22' E 011°42'8016.0
2016-Nov-28 17:33N 56°07' E 012°33'1515.4
2016-Nov-28 16:33N 55°53' E 012°44'1211.9
2016-Nov-28 15:33N 55°42' E 012°36'0 0.3
2016-Nov-28 14:31N 55°42' E 012°36'0 0.0
2016-Nov-28 13:31N 55°42' E 012°36'0 0.0
2016-Nov-28 12:31N 55°42' E 012°36'0 0.0
2016-Nov-28 11:31N 55°42' E 012°36'0 0.0
2016-Nov-28 10:31N 55°42' E 012°36'0 0.0
2016-Nov-28 09:31N 55°42' E 012°36'0 0.1
2016-Nov-28 08:33N 55°42' E 012°36'1110.7
2016-Nov-28 07:33N 55°53' E 012°40'1414.2
2016-Nov-28 06:34N 56°06' E 012°33'6916.0
2016-Nov-28 02:13N 57°12' E 011°52'1015.6
2016-Nov-28 01:33N 57°21' E 011°43'1615.7
2016-Nov-28 00:34N 57°34' E 011°28'1616.0
2016-Nov-27 23:33N 57°49' E 011°17'1616.2
2016-Nov-27 22:34N 58°05' E 011°08'1616.0
2016-Nov-27 21:33N 58°20' E 010°60'1616.1
2016-Nov-27 20:34N 58°36' E 010°51'1616.3
2016-Nov-27 19:34N 58°51' E 010°44'1717.3
2016-Nov-27 18:34N 59°08' E 010°39'1817.8
2016-Nov-27 17:34N 59°26' E 010°33'1515.1
2016-Nov-27 16:33N 59°41' E 010°36'1413.5
2016-Nov-27 15:34N 59°54' E 010°44'1 0.2
2016-Nov-27 09:13N 59°54' E 010°41'1015.6
2016-Nov-27 08:33N 59°44' E 010°35'1414.1
2016-Nov-27 07:33N 59°30' E 010°35'1716.5
2016-Nov-27 06:33N 59°13' E 010°38'1616.4
2016-Nov-27 05:33N 58°57' E 010°42'1716.9
2016-Nov-27 04:33N 58°40' E 010°46'1716.8
2016-Nov-27 03:33N 58°24' E 010°56'1716.9
2016-Nov-27 02:33N 58°08' E 011°06'1616.1
2016-Nov-27 01:33N 57°53' E 011°15'1616.0
2016-Nov-27 00:33N 57°37' E 011°23'1616.3
2016-Nov-26 23:33N 57°22' E 011°32'1616.2
2016-Nov-26 22:33N 57°06' E 011°41'150145.3
2016-Nov-26 21:32N 59°33' E 010°36'9 8.7
2016-Nov-26 20:29N 59°42' E 010°36'9 9.9
2016-Nov-26 19:33N 59°51' E 010°35'229230.7
2016-Nov-26 18:33N 56°10' E 012°30'10 9.6
2016-Nov-26 17:33N 56°02' E 012°40'1010.1
2016-Nov-26 16:33N 55°52' E 012°45'1111.2
2016-Nov-26 15:33N 55°42' E 012°36'0 0.0
2016-Nov-26 14:28N 55°42' E 012°36'0 0.0
2016-Nov-26 13:31N 55°42' E 012°36'0 0.0
2016-Nov-26 12:31N 55°42' E 012°36'0 0.0
2016-Nov-26 11:31N 55°42' E 012°36'0 0.0
2016-Nov-26 10:31N 55°42' E 012°36'0 0.0
2016-Nov-26 09:31N 55°42' E 012°36'0 0.2
2016-Nov-26 08:33N 55°42' E 012°36'1211.8
2016-Nov-26 07:33N 55°54' E 012°40'1716.6
2016-Nov-26 06:33N 56°09' E 012°29'208204.6
2016-Nov-26 05:32N 59°29' E 010°34'1110.9
2016-Nov-26 04:32N 59°18' E 010°37'12663.6
2016-Nov-26 02:33N 57°17' E 011°47'1818.0
2016-Nov-26 01:33N 57°31' E 011°27'1817.6
2016-Nov-26 00:33N 57°46' E 011°09'1716.8
2016-Nov-25 23:33N 58°01' E 010°57'1716.9
2016-Nov-25 22:33N 58°17' E 010°46'1816.0
2016-Nov-25 21:26N 58°34' E 010°35'1415.8
2016-Nov-25 20:33N 58°48' E 010°34'1616.1
2016-Nov-25 19:34N 59°04' E 010°37'1413.6
2016-Nov-25 18:33N 59°18' E 010°36'1413.7
2016-Nov-25 17:33N 59°31' E 010°35'1413.1
2016-Nov-25 16:30N 59°45' E 010°33'11 1.3
2016-Nov-25 08:31N 59°54' E 010°45'1212.2
2016-Nov-25 07:34N 59°43' E 010°35'1413.9
2016-Nov-25 06:33N 59°29' E 010°35'1616.0
2016-Nov-25 05:33N 59°14' E 010°38'1616.4
2016-Nov-25 04:33N 58°57' E 010°43'1615.7
2016-Nov-25 03:33N 58°42' E 010°48'1616.3
2016-Nov-25 02:33N 58°26' E 010°55'1716.7
2016-Nov-25 01:33N 58°10' E 011°04'1716.5
2016-Nov-25 00:33N 57°54' E 011°14'1616.0
2016-Nov-24 23:33N 57°39' E 011°22'1616.3
2016-Nov-24 22:33N 57°24' E 011°31'1616.0
2016-Nov-24 21:33N 57°08' E 011°40'6516.3
2016-Nov-24 17:33N 56°09' E 012°31'1615.6
2016-Nov-24 16:33N 55°55' E 012°44'1413.8
2016-Nov-24 15:33N 55°42' E 012°36'0 0.3
2016-Nov-24 14:33N 55°42' E 012°36'0 0.0
2016-Nov-24 13:33N 55°42' E 012°36'0 0.0
2016-Nov-24 12:33N 55°42' E 012°36'0 0.0
2016-Nov-24 11:33N 55°42' E 012°36'0 0.0
2016-Nov-24 10:33N 55°42' E 012°36'0 0.0
2016-Nov-24 09:33N 55°42' E 012°36'0 0.1
2016-Nov-24 08:33N 55°42' E 012°36'1110.8
2016-Nov-24 07:33N 55°53' E 012°40'1515.5
2016-Nov-24 06:33N 56°07' E 012°32'6416.0
2016-Nov-24 02:32N 57°08' E 011°56'1616.7
2016-Nov-24 01:33N 57°23' E 011°42'1717.3
2016-Nov-24 00:33N 57°38' E 011°27'1717.0
2016-Nov-23 23:33N 57°54' E 011°14'1616.3
2016-Nov-23 22:33N 58°09' E 011°06'1515.4
2016-Nov-23 21:33N 58°24' E 010°57'1615.8
2016-Nov-23 20:33N 58°39' E 010°49'1616.2
2016-Nov-23 19:33N 58°55' E 010°43'1616.4
2016-Nov-23 18:33N 59°11' E 010°38'1716.7
2016-Nov-23 17:33N 59°28' E 010°34'1313.5
2016-Nov-23 16:33N 59°41' E 010°36'14 1.7
2016-Nov-23 08:29N 59°54' E 010°45'  
Track history (hours):
 
Tides and Currents Weather Stations Pressure Air Temp Water Temp Dewpoint Dewpoint Depression Visibility Wind Speed Wind Dir Waves Ship Positions

Pearl Of Scandinavia

Last reported at 2016-Dec-03 15:31 UTC. Time now 2016-Dec-03 15:38 UTC.
Position N 59°54' E 010°44'.

Length 176.4 m; beam 34 m; draft 6.215 m.

Type: Ship. MMSI: 219945000.

Date/timePositionNaut miles runAvg speedWind from/ knotsBaromVisibWave heightAir tempDewpointWater temp
2016-Dec-03 15:31N 59°54' E 010°44'2 0.2
2016-Dec-03 08:20N 59°53' E 010°41'1114.0
2016-Dec-03 07:34N 59°43' E 010°35'1414.2
2016-Dec-03 06:34N 59°29' E 010°34'1615.9
2016-Dec-03 05:33N 59°13' E 010°38'1615.9
2016-Dec-03 04:33N 58°57' E 010°42'1615.8
2016-Dec-03 03:34N 58°42' E 010°45'1616.0
2016-Dec-03 02:33N 58°27' E 010°56'1616.0
2016-Dec-03 01:33N 58°11' E 011°06'1616.2
2016-Dec-03 00:33N 57°56' E 011°16'1616.3
2016-Dec-02 23:33N 57°41' E 011°26'1616.4
2016-Dec-02 22:33N 57°26' E 011°38'1716.5
2016-Dec-02 21:33N 57°12' E 011°54'6616.6
2016-Dec-02 17:33N 56°09' E 012°31'1616.0
2016-Dec-02 16:34N 55°54' E 012°45'1313.1
2016-Dec-02 15:33N 55°42' E 012°36'0 0.2
2016-Dec-02 14:33N 55°42' E 012°36'0 0.0
2016-Dec-02 13:33N 55°42' E 012°36'0 0.0
2016-Dec-02 12:33N 55°42' E 012°36'0 0.0
2016-Dec-02 11:33N 55°42' E 012°36'0 0.0
2016-Dec-02 10:33N 55°42' E 012°36'0 0.0
2016-Dec-02 09:33N 55°42' E 012°36'0 0.2
2016-Dec-02 08:33N 55°42' E 012°36'1110.8
2016-Dec-02 07:33N 55°53' E 012°40'1414.4
2016-Dec-02 06:33N 56°07' E 012°32'235222.1
2016-Dec-02 05:30N 59°54' E 010°45'0 0.0
2016-Dec-02 04:33N 59°54' E 010°45'0 0.0
2016-Dec-02 03:29N 59°54' E 010°45'0 0.3
2016-Dec-02 02:33N 59°54' E 010°44'157157.6
2016-Dec-02 01:33N 57°21' E 011°44'1716.6
2016-Dec-02 00:33N 57°35' E 011°29'1716.9
2016-Dec-01 23:33N 57°51' E 011°16'1616.2
2016-Dec-01 22:33N 58°06' E 011°08'1616.0
2016-Dec-01 21:33N 58°21' E 010°59'1616.4
2016-Dec-01 20:33N 58°37' E 010°50'1716.5
2016-Dec-01 19:33N 58°53' E 010°44'1716.7
2016-Dec-01 18:33N 59°10' E 010°38'1817.5
2016-Dec-01 17:33N 59°27' E 010°33'1413.9
2016-Dec-01 16:33N 59°41' E 010°36'1413.1
2016-Dec-01 15:31N 59°54' E 010°44'1 0.2
2016-Dec-01 08:20N 59°54' E 010°41'1113.9
2016-Dec-01 07:33N 59°43' E 010°35'1414.0
2016-Dec-01 06:33N 59°29' E 010°35'1616.5
2016-Dec-01 05:33N 59°13' E 010°38'1616.4
2016-Dec-01 04:33N 58°57' E 010°42'1616.2
2016-Dec-01 03:34N 58°41' E 010°46'1717.1
2016-Dec-01 02:33N 58°25' E 010°56'1816.7
2016-Dec-01 01:30N 58°08' E 011°07'1616.7
2016-Dec-01 00:33N 57°53' E 011°16'1716.6
2016-Nov-30 23:33N 57°37' E 011°27'1616.1
2016-Nov-30 22:33N 57°23' E 011°41'1716.5
2016-Nov-30 21:33N 57°09' E 011°56'6315.9
2016-Nov-30 17:33N 56°08' E 012°32'1515.0
2016-Nov-30 16:33N 55°55' E 012°44'1313.3
2016-Nov-30 15:33N 55°42' E 012°36'0 0.4
2016-Nov-30 14:31N 55°42' E 012°36'0 0.0
2016-Nov-30 13:31N 55°42' E 012°36'0 0.0
2016-Nov-30 12:31N 55°42' E 012°36'0 0.0
2016-Nov-30 11:31N 55°42' E 012°36'0 0.0
2016-Nov-30 10:31N 55°42' E 012°36'0 0.0
2016-Nov-30 09:31N 55°42' E 012°36'0 0.3
2016-Nov-30 08:32N 55°42' E 012°36'1111.7
2016-Nov-30 07:33N 55°54' E 012°40'1515.4
2016-Nov-30 06:33N 56°08' E 012°30'6615.8
2016-Nov-30 02:22N 57°11' E 011°54'1315.8
2016-Nov-30 01:33N 57°22' E 011°42'1616.5
2016-Nov-30 00:33N 57°37' E 011°28'1717.0
2016-Nov-29 23:33N 57°53' E 011°17'1716.6
2016-Nov-29 22:33N 58°09' E 011°06'1515.6
2016-Nov-29 21:34N 58°23' E 010°58'1616.2
2016-Nov-29 20:34N 58°39' E 010°49'1716.9
2016-Nov-29 19:34N 58°56' E 010°43'1716.9
2016-Nov-29 18:34N 59°12' E 010°38'1717.1
2016-Nov-29 17:34N 59°29' E 010°34'1313.1
2016-Nov-29 16:33N 59°42' E 010°35'1312.6
2016-Nov-29 15:32N 59°54' E 010°45'0 0.0
2016-Nov-29 14:33N 59°54' E 010°45'0 0.0
2016-Nov-29 13:32N 59°54' E 010°45'0 0.0
2016-Nov-29 12:32N 59°54' E 010°45'0 0.0
2016-Nov-29 11:33N 59°54' E 010°45'0 0.0
2016-Nov-29 10:32N 59°54' E 010°45'0 0.0
2016-Nov-29 09:32N 59°54' E 010°45'0 0.2
2016-Nov-29 08:33N 59°54' E 010°45'1212.1
2016-Nov-29 07:33N 59°43' E 010°35'1413.9
2016-Nov-29 06:33N 59°29' E 010°34'1616.5
2016-Nov-29 05:33N 59°13' E 010°38'1616.3
2016-Nov-29 04:33N 58°57' E 010°43'1615.9
2016-Nov-29 03:33N 58°41' E 010°46'1716.6
2016-Nov-29 02:33N 58°25' E 010°56'3635.5
2016-Nov-29 01:33N 59°00' E 010°41'7071.2
2016-Nov-29 00:33N 57°52' E 011°17'1716.7
2016-Nov-28 23:33N 57°37' E 011°28'1616.4
2016-Nov-28 22:33N 57°22' E 011°42'8016.0
2016-Nov-28 17:33N 56°07' E 012°33'1515.4
2016-Nov-28 16:33N 55°53' E 012°44'1211.9
2016-Nov-28 15:33N 55°42' E 012°36'0 0.3
2016-Nov-28 14:31N 55°42' E 012°36'0 0.0
2016-Nov-28 13:31N 55°42' E 012°36'0 0.0
2016-Nov-28 12:31N 55°42' E 012°36'0 0.0
2016-Nov-28 11:31N 55°42' E 012°36'0 0.0
2016-Nov-28 10:31N 55°42' E 012°36'0 0.0
2016-Nov-28 09:31N 55°42' E 012°36'0 0.1
2016-Nov-28 08:33N 55°42' E 012°36'1110.7
2016-Nov-28 07:33N 55°53' E 012°40'1414.2
2016-Nov-28 06:34N 56°06' E 012°33'6916.0
2016-Nov-28 02:13N 57°12' E 011°52'1015.6
2016-Nov-28 01:33N 57°21' E 011°43'1615.7
2016-Nov-28 00:34N 57°34' E 011°28'1616.0
2016-Nov-27 23:33N 57°49' E 011°17'1616.2
2016-Nov-27 22:34N 58°05' E 011°08'1616.0
2016-Nov-27 21:33N 58°20' E 010°60'1616.1
2016-Nov-27 20:34N 58°36' E 010°51'1616.3
2016-Nov-27 19:34N 58°51' E 010°44'1717.3
2016-Nov-27 18:34N 59°08' E 010°39'1817.8
2016-Nov-27 17:34N 59°26' E 010°33'1515.1
2016-Nov-27 16:33N 59°41' E 010°36'1413.5
2016-Nov-27 15:34N 59°54' E 010°44'1 0.2
2016-Nov-27 09:13N 59°54' E 010°41'1015.6
2016-Nov-27 08:33N 59°44' E 010°35'1414.1
2016-Nov-27 07:33N 59°30' E 010°35'1716.5
2016-Nov-27 06:33N 59°13' E 010°38'1616.4
2016-Nov-27 05:33N 58°57' E 010°42'1716.9
2016-Nov-27 04:33N 58°40' E 010°46'1716.8
2016-Nov-27 03:33N 58°24' E 010°56'1716.9
2016-Nov-27 02:33N 58°08' E 011°06'1616.1
2016-Nov-27 01:33N 57°53' E 011°15'1616.0
2016-Nov-27 00:33N 57°37' E 011°23'1616.3
2016-Nov-26 23:33N 57°22' E 011°32'1616.2
2016-Nov-26 22:33N 57°06' E 011°41'150145.3
2016-Nov-26 21:32N 59°33' E 010°36'9 8.7
2016-Nov-26 20:29N 59°42' E 010°36'9 9.9
2016-Nov-26 19:33N 59°51' E 010°35'229230.7
2016-Nov-26 18:33N 56°10' E 012°30'10 9.6
2016-Nov-26 17:33N 56°02' E 012°40'1010.1
2016-Nov-26 16:33N 55°52' E 012°45'1111.2
2016-Nov-26 15:33N 55°42' E 012°36'0 0.0
2016-Nov-26 14:28N 55°42' E 012°36'0 0.0
2016-Nov-26 13:31N 55°42' E 012°36'0 0.0
2016-Nov-26 12:31N 55°42' E 012°36'0 0.0
2016-Nov-26 11:31N 55°42' E 012°36'0 0.0
2016-Nov-26 10:31N 55°42' E 012°36'0 0.0
2016-Nov-26 09:31N 55°42' E 012°36'0 0.2
2016-Nov-26 08:33N 55°42' E 012°36'1211.8
2016-Nov-26 07:33N 55°54' E 012°40'1716.6
2016-Nov-26 06:33N 56°09' E 012°29'208204.6
2016-Nov-26 05:32N 59°29' E 010°34'1110.9
2016-Nov-26 04:32N 59°18' E 010°37'12663.6
2016-Nov-26 02:33N 57°17' E 011°47'1818.0
2016-Nov-26 01:33N 57°31' E 011°27'1817.6
2016-Nov-26 00:33N 57°46' E 011°09'1716.8
2016-Nov-25 23:33N 58°01' E 010°57'1716.9
2016-Nov-25 22:33N 58°17' E 010°46'1816.0
2016-Nov-25 21:26N 58°34' E 010°35'1415.8
2016-Nov-25 20:33N 58°48' E 010°34'1616.1
2016-Nov-25 19:34N 59°04' E 010°37'1413.6
2016-Nov-25 18:33N 59°18' E 010°36'1413.7
2016-Nov-25 17:33N 59°31' E 010°35'1413.1
2016-Nov-25 16:30N 59°45' E 010°33'11 1.3
2016-Nov-25 08:31N 59°54' E 010°45'1212.2
2016-Nov-25 07:34N 59°43' E 010°35'1413.9
2016-Nov-25 06:33N 59°29' E 010°35'1616.0
2016-Nov-25 05:33N 59°14' E 010°38'1616.4
2016-Nov-25 04:33N 58°57' E 010°43'1615.7
2016-Nov-25 03:33N 58°42' E 010°48'1616.3
2016-Nov-25 02:33N 58°26' E 010°55'1716.7
2016-Nov-25 01:33N 58°10' E 011°04'1716.5
2016-Nov-25 00:33N 57°54' E 011°14'1616.0
2016-Nov-24 23:33N 57°39' E 011°22'1616.3
2016-Nov-24 22:33N 57°24' E 011°31'1616.0
2016-Nov-24 21:33N 57°08' E 011°40'6516.3
2016-Nov-24 17:33N 56°09' E 012°31'1615.6
2016-Nov-24 16:33N 55°55' E 012°44'1413.8
2016-Nov-24 15:33N 55°42' E 012°36'0 0.3
2016-Nov-24 14:33N 55°42' E 012°36'0 0.0
2016-Nov-24 13:33N 55°42' E 012°36'0 0.0
2016-Nov-24 12:33N 55°42' E 012°36'0 0.0
2016-Nov-24 11:33N 55°42' E 012°36'0 0.0
2016-Nov-24 10:33N 55°42' E 012°36'0 0.0
2016-Nov-24 09:33N 55°42' E 012°36'0 0.1
2016-Nov-24 08:33N 55°42' E 012°36'1110.8
2016-Nov-24 07:33N 55°53' E 012°40'1515.5
2016-Nov-24 06:33N 56°07' E 012°32'6416.0
2016-Nov-24 02:32N 57°08' E 011°56'1616.7
2016-Nov-24 01:33N 57°23' E 011°42'1717.3
2016-Nov-24 00:33N 57°38' E 011°27'1717.0
2016-Nov-23 23:33N 57°54' E 011°14'1616.3
2016-Nov-23 22:33N 58°09' E 011°06'1515.4
2016-Nov-23 21:33N 58°24' E 010°57'1615.8
2016-Nov-23 20:33N 58°39' E 010°49'1616.2
2016-Nov-23 19:33N 58°55' E 010°43'1616.4
2016-Nov-23 18:33N 59°11' E 010°38'1716.7
2016-Nov-23 17:33N 59°28' E 010°34'1313.5
2016-Nov-23 16:33N 59°41' E 010°36'14 1.7
2016-Nov-23 08:29N 59°54' E 010°45'  

Dump ship's entire track history